NOS30G BIKF-LIMC
Flight info
| Callsign | NOS30G |
|---|---|
| Flight time | N/A |
| Altitude | 41000 |
| Route | PIXUM1A PIXUM DCT PETUX DCT PODAR DCT BALIX/N0494F410 DCT NINEX DCT GODOS DCT SUTAL DCT GTQ DCT OBORN DCT DEVDI/N0494F390 DCT BASGO/N0504F290 Z424 AKASU/N0432F190 Z424 RIXUV |
| Aircraft | B789/H-SDE1E2E3FGHIJ2J3J4J5M1RWXY/LB1D1 |
Departure
| Time | N/A |
|---|---|
| Airport | Keflavik International Airport (BIKF) |
Arrival
| Time | 2026-05-05 19:45 |
|---|---|
| Airport | Milan Malpensa International Airport (LIMC) |
| Time | Latitude | Longitude | Altitude | Speed | Heading |
|---|---|---|---|---|---|
| 2026-05-05 17:59 | 54.46746 | 1.14800 | 40994 ft | 499 kts | 133° |
| 2026-05-05 18:00 | 54.44460 | 1.19284 | 41008 ft | 497 kts | 133° |
| 2026-05-05 18:00 | 54.39907 | 1.28189 | 40984 ft | 496 kts | 134° |
| 2026-05-05 18:01 | 54.35342 | 1.37086 | 40990 ft | 497 kts | 134° |
| 2026-05-05 18:01 | 54.30792 | 1.45920 | 40992 ft | 497 kts | 134° |
| 2026-05-05 18:02 | 54.26199 | 1.54808 | 40984 ft | 498 kts | 134° |
| 2026-05-05 18:02 | 54.21601 | 1.63671 | 40981 ft | 498 kts | 134° |
| 2026-05-05 18:03 | 54.17012 | 1.72486 | 40974 ft | 496 kts | 134° |
| 2026-05-05 18:03 | 54.12427 | 1.81260 | 40970 ft | 495 kts | 134° |
| 2026-05-05 18:04 | 54.07828 | 1.90030 | 40971 ft | 496 kts | 134° |
| 2026-05-05 18:04 | 54.03215 | 1.98796 | 40974 ft | 498 kts | 134° |
| 2026-05-05 18:05 | 53.98576 | 2.07578 | 40979 ft | 498 kts | 134° |
| 2026-05-05 18:05 | 53.93952 | 2.16302 | 40967 ft | 496 kts | 134° |
| 2026-05-05 18:06 | 53.89344 | 2.24963 | 40961 ft | 494 kts | 134° |
| 2026-05-05 18:06 | 53.84759 | 2.33550 | 40961 ft | 495 kts | 134° |
| 2026-05-05 18:07 | 53.80122 | 2.42205 | 40961 ft | 496 kts | 134° |
| 2026-05-05 18:07 | 53.75464 | 2.50867 | 40962 ft | 498 kts | 134° |
| 2026-05-05 18:08 | 53.70803 | 2.59506 | 40948 ft | 497 kts | 134° |
| 2026-05-05 18:08 | 53.66153 | 2.68093 | 40956 ft | 495 kts | 135° |
| 2026-05-05 18:09 | 53.61503 | 2.76649 | 40948 ft | 495 kts | 135° |
| 2026-05-05 18:09 | 53.56850 | 2.85182 | 40950 ft | 495 kts | 135° |
| 2026-05-05 18:10 | 53.52186 | 2.93704 | 40949 ft | 494 kts | 135° |
| 2026-05-05 18:10 | 53.47527 | 3.02189 | 40951 ft | 494 kts | 135° |
| 2026-05-05 18:11 | 53.42861 | 3.10655 | 40950 ft | 494 kts | 135° |
| 2026-05-05 18:11 | 53.38181 | 3.19117 | 40957 ft | 495 kts | 135° |
| 2026-05-05 18:12 | 53.33494 | 3.27563 | 40955 ft | 496 kts | 135° |
| 2026-05-05 18:12 | 53.28793 | 3.36005 | 40964 ft | 496 kts | 135° |
| 2026-05-05 18:13 | 53.23779 | 3.43733 | 40970 ft | 491 kts | 151° |
| 2026-05-05 18:13 | 53.17749 | 3.49140 | 40979 ft | 488 kts | 155° |
| 2026-05-05 18:14 | 53.11718 | 3.54246 | 40978 ft | 486 kts | 155° |
| 2026-05-05 18:14 | 53.05746 | 3.59367 | 40971 ft | 485 kts | 155° |
| 2026-05-05 18:15 | 52.99875 | 3.64341 | 40952 ft | 483 kts | 155° |
| 2026-05-05 18:15 | 52.93877 | 3.69431 | 40960 ft | 484 kts | 155° |
| 2026-05-05 18:16 | 52.87872 | 3.74500 | 40955 ft | 483 kts | 155° |
| 2026-05-05 18:16 | 52.81884 | 3.79544 | 40956 ft | 483 kts | 155° |
| 2026-05-05 18:17 | 52.75890 | 3.84574 | 40951 ft | 482 kts | 155° |
| 2026-05-05 18:17 | 52.69910 | 3.89578 | 40943 ft | 482 kts | 155° |
| 2026-05-05 18:18 | 52.63928 | 3.94569 | 40939 ft | 481 kts | 155° |
| 2026-05-05 18:18 | 52.57987 | 3.99509 | 40939 ft | 483 kts | 155° |
| 2026-05-05 18:19 | 52.51980 | 4.04490 | 40928 ft | 484 kts | 155° |
| 2026-05-05 18:19 | 52.45958 | 4.09467 | 40927 ft | 484 kts | 155° |
| 2026-05-05 18:20 | 52.39942 | 4.14424 | 40918 ft | 484 kts | 155° |
| 2026-05-05 18:20 | 52.33932 | 4.19362 | 40910 ft | 483 kts | 155° |
| 2026-05-05 18:21 | 52.27923 | 4.24283 | 40905 ft | 482 kts | 155° |
| 2026-05-05 18:21 | 52.21917 | 4.29186 | 40904 ft | 482 kts | 155° |
| 2026-05-05 18:22 | 52.15899 | 4.34085 | 40896 ft | 483 kts | 155° |
| 2026-05-05 18:22 | 52.09884 | 4.38966 | 40894 ft | 483 kts | 155° |
| 2026-05-05 18:23 | 52.03866 | 4.43836 | 40895 ft | 483 kts | 156° |
| 2026-05-05 18:23 | 51.97878 | 4.48666 | 40884 ft | 483 kts | 155° |
| 2026-05-05 18:24 | 51.91867 | 4.53499 | 40876 ft | 482 kts | 155° |
| 2026-05-05 18:24 | 51.85827 | 4.58343 | 40877 ft | 481 kts | 155° |
| 2026-05-05 18:25 | 51.79866 | 4.63108 | 40873 ft | 480 kts | 155° |
| 2026-05-05 18:25 | 51.73859 | 4.67895 | 40872 ft | 482 kts | 156° |
| 2026-05-05 18:26 | 51.67841 | 4.72677 | 40876 ft | 483 kts | 155° |
| 2026-05-05 18:26 | 51.61810 | 4.77456 | 40880 ft | 482 kts | 155° |
| 2026-05-05 18:27 | 51.55791 | 4.82210 | 40876 ft | 482 kts | 156° |
| 2026-05-05 18:27 | 51.49787 | 4.86939 | 40878 ft | 480 kts | 156° |
| 2026-05-05 18:28 | 51.40808 | 4.93984 | 40875 ft | 478 kts | 155° |
| 2026-05-05 18:28 | 51.34819 | 4.98666 | 40875 ft | 480 kts | 155° |
| 2026-05-05 18:29 | 51.28842 | 5.03326 | 40871 ft | 481 kts | 156° |
| 2026-05-05 18:29 | 51.22817 | 5.08008 | 40880 ft | 482 kts | 156° |
| 2026-05-05 18:30 | 51.16786 | 5.12683 | 40872 ft | 481 kts | 155° |
| 2026-05-05 18:30 | 51.10769 | 5.17332 | 40869 ft | 479 kts | 156° |
| 2026-05-05 18:31 | 51.04778 | 5.21949 | 40865 ft | 478 kts | 156° |
| 2026-05-05 18:31 | 50.98785 | 5.26553 | 40861 ft | 480 kts | 156° |
| 2026-05-05 18:32 | 50.92876 | 5.31079 | 40865 ft | 482 kts | 156° |
| 2026-05-05 18:32 | 50.86831 | 5.35697 | 40868 ft | 482 kts | 156° |
| 2026-05-05 18:33 | 50.80792 | 5.40297 | 40863 ft | 480 kts | 156° |
| 2026-05-05 18:33 | 50.74808 | 5.44842 | 40852 ft | 479 kts | 156° |
| 2026-05-05 18:34 | 50.68785 | 5.49403 | 40850 ft | 480 kts | 156° |
| 2026-05-05 18:34 | 50.63765 | 5.53194 | 40852 ft | 482 kts | 156° |
| 2026-05-05 18:35 | 50.57720 | 5.57749 | 40846 ft | 481 kts | 156° |
| 2026-05-05 18:35 | 50.51688 | 5.62280 | 40839 ft | 480 kts | 156° |
| 2026-05-05 18:36 | 50.45655 | 5.66799 | 40838 ft | 480 kts | 156° |
| 2026-05-05 18:36 | 50.39613 | 5.71312 | 40839 ft | 481 kts | 156° |
| 2026-05-05 18:37 | 50.33572 | 5.75811 | 40833 ft | 481 kts | 156° |
| 2026-05-05 18:37 | 50.27512 | 5.80312 | 40829 ft | 482 kts | 156° |
| 2026-05-05 18:38 | 50.21483 | 5.84777 | 40832 ft | 483 kts | 156° |
| 2026-05-05 18:38 | 50.15413 | 5.89260 | 40828 ft | 483 kts | 156° |
| 2026-05-05 18:39 | 50.09348 | 5.93728 | 40824 ft | 481 kts | 156° |
| 2026-05-05 18:39 | 50.03303 | 5.98166 | 40817 ft | 480 kts | 156° |
| 2026-05-05 18:40 | 49.97244 | 6.02603 | 40821 ft | 483 kts | 156° |
| 2026-05-05 18:40 | 49.91159 | 6.07048 | 40815 ft | 483 kts | 156° |
| 2026-05-05 18:41 | 49.85073 | 6.11480 | 40815 ft | 482 kts | 156° |
| 2026-05-05 18:41 | 49.79057 | 6.15849 | 40798 ft | 480 kts | 157° |
| 2026-05-05 18:42 | 49.73005 | 6.20230 | 40795 ft | 480 kts | 157° |
| 2026-05-05 18:42 | 49.66937 | 6.24615 | 40797 ft | 481 kts | 157° |
| 2026-05-05 18:43 | 49.60886 | 6.28972 | 40797 ft | 482 kts | 157° |
| 2026-05-05 18:43 | 49.54814 | 6.33334 | 40799 ft | 481 kts | 157° |
| 2026-05-05 18:44 | 49.48767 | 6.37665 | 40804 ft | 478 kts | 157° |
| 2026-05-05 18:44 | 49.42711 | 6.41913 | 40809 ft | 478 kts | 159° |
| 2026-05-05 18:45 | 49.36607 | 6.45994 | 40816 ft | 479 kts | 158° |
| 2026-05-05 18:45 | 49.30063 | 6.50481 | 40821 ft | 481 kts | 158° |
| 2026-05-05 18:46 | 49.23928 | 6.54612 | 40827 ft | 482 kts | 158° |
| 2026-05-05 18:46 | 49.17807 | 6.58758 | 40827 ft | 481 kts | 158° |
| 2026-05-05 18:47 | 49.11726 | 6.62847 | 40824 ft | 479 kts | 158° |
| 2026-05-05 18:47 | 49.05638 | 6.66939 | 40821 ft | 477 kts | 158° |
| 2026-05-05 18:48 | 48.99554 | 6.71018 | 40820 ft | 477 kts | 157° |
| 2026-05-05 18:48 | 48.93805 | 6.76160 | 40826 ft | 482 kts | 151° |
| 2026-05-05 18:49 | 48.88077 | 6.81493 | 40838 ft | 482 kts | 150° |
| 2026-05-05 18:49 | 48.82352 | 6.86833 | 40838 ft | 484 kts | 151° |
| 2026-05-05 18:50 | 48.76622 | 6.92148 | 40839 ft | 485 kts | 151° |
| 2026-05-05 18:50 | 48.70884 | 6.97466 | 40838 ft | 483 kts | 151° |
| 2026-05-05 18:51 | 48.65157 | 7.02753 | 40826 ft | 480 kts | 151° |
| 2026-05-05 18:51 | 48.59452 | 7.08009 | 40825 ft | 480 kts | 151° |
| 2026-05-05 18:52 | 48.53743 | 7.13253 | 40823 ft | 481 kts | 151° |
| 2026-05-05 18:52 | 48.48060 | 7.18459 | 40831 ft | 481 kts | 152° |
| 2026-05-05 18:53 | 48.41933 | 7.22240 | 40834 ft | 477 kts | 164° |
| 2026-05-05 18:53 | 48.35607 | 7.25296 | 40829 ft | 477 kts | 164° |
| 2026-05-05 18:54 | 48.29294 | 7.28349 | 40846 ft | 477 kts | 164° |
| 2026-05-05 18:54 | 48.22968 | 7.31396 | 40828 ft | 477 kts | 164° |
| 2026-05-05 18:55 | 48.16666 | 7.34425 | 40812 ft | 474 kts | 164° |
| 2026-05-05 18:55 | 48.10396 | 7.37430 | 40824 ft | 473 kts | 165° |
| 2026-05-05 18:56 | 48.04122 | 7.40430 | 40826 ft | 474 kts | 165° |
| 2026-05-05 18:56 | 47.97830 | 7.43430 | 40816 ft | 474 kts | 165° |
| 2026-05-05 18:57 | 47.91532 | 7.46425 | 40843 ft | 476 kts | 165° |
| 2026-05-05 18:57 | 47.85245 | 7.49409 | 40862 ft | 477 kts | 165° |
| 2026-05-05 18:58 | 47.78912 | 7.52406 | 40870 ft | 477 kts | 165° |
| 2026-05-05 18:58 | 47.72634 | 7.55589 | 40883 ft | 477 kts | 158° |
| 2026-05-05 18:59 | 47.66538 | 7.59549 | 40856 ft | 477 kts | 159° |
| 2026-05-05 18:59 | 47.60456 | 7.63480 | 40856 ft | 477 kts | 159° |
| 2026-05-05 19:00 | 47.54368 | 7.67416 | 40852 ft | 477 kts | 159° |
| 2026-05-05 19:00 | 47.48278 | 7.71332 | 40866 ft | 477 kts | 159° |
| 2026-05-05 19:01 | 47.42192 | 7.75244 | 40881 ft | 477 kts | 159° |
| 2026-05-05 19:01 | 47.36099 | 7.79144 | 40894 ft | 478 kts | 159° |
| 2026-05-05 19:02 | 47.30029 | 7.83024 | 40903 ft | 479 kts | 160° |
| 2026-05-05 19:02 | 47.24897 | 7.86294 | 40295 ft | 479 kts | 159° |
| 2026-05-05 19:03 | 47.20871 | 7.88858 | 40914 ft | 470 kts | 159° |
| 2026-05-05 19:03 | 47.17917 | 7.90741 | 40907 ft | 459 kts | 160° |
| 2026-05-05 19:03 | 47.13978 | 7.93231 | 40922 ft | 464 kts | 160° |
| 2026-05-05 19:04 | 47.08945 | 7.96416 | 40914 ft | 476 kts | 160° |
| 2026-05-05 19:04 | 47.02825 | 8.00289 | 40919 ft | 479 kts | 160° |
| 2026-05-05 19:05 | 46.96703 | 8.04145 | 40919 ft | 478 kts | 160° |
| 2026-05-05 19:05 | 46.90641 | 8.07957 | 40916 ft | 477 kts | 160° |
| 2026-05-05 19:06 | 46.84541 | 8.11781 | 40904 ft | 478 kts | 160° |
| 2026-05-05 19:06 | 46.78407 | 8.15620 | 40897 ft | 480 kts | 160° |
| 2026-05-05 19:07 | 46.72284 | 8.19441 | 40909 ft | 478 kts | 160° |
| 2026-05-05 19:07 | 46.66171 | 8.23246 | 40905 ft | 477 kts | 160° |
| 2026-05-05 19:08 | 46.60048 | 8.27048 | 40935 ft | 477 kts | 160° |
| 2026-05-05 19:08 | 46.53925 | 8.30840 | 40597 ft | 483 kts | 160° |
| 2026-05-05 19:09 | 46.50832 | 8.32750 | 40031 ft | 483 kts | 160° |
| 2026-05-05 19:09 | 46.47751 | 8.34658 | 39488 ft | 479 kts | 160° |
| 2026-05-05 19:09 | 46.44702 | 8.36541 | 38955 ft | 475 kts | 161° |
| 2026-05-05 19:09 | 46.41672 | 8.38405 | 38385 ft | 471 kts | 161° |
| 2026-05-05 19:10 | 46.38669 | 8.40251 | 37739 ft | 466 kts | 161° |
| 2026-05-05 19:10 | 46.35701 | 8.42077 | 37110 ft | 462 kts | 162° |
| 2026-05-05 19:10 | 46.32750 | 8.43890 | 36479 ft | 458 kts | 162° |
| 2026-05-05 19:10 | 46.29831 | 8.45677 | 35886 ft | 454 kts | 164° |
| 2026-05-05 19:11 | 46.26860 | 8.47045 | 35334 ft | 445 kts | 173° |
| 2026-05-05 19:11 | 46.23815 | 8.47719 | 34797 ft | 442 kts | 180° |
| 2026-05-05 19:11 | 46.20796 | 8.48155 | 34262 ft | 442 kts | 181° |
| 2026-05-05 19:11 | 46.17742 | 8.48596 | 33654 ft | 439 kts | 181° |
| 2026-05-05 19:12 | 46.14700 | 8.49025 | 33042 ft | 439 kts | 181° |
| 2026-05-05 19:12 | 46.11645 | 8.49605 | 32428 ft | 447 kts | 174° |
| 2026-05-05 19:12 | 46.08619 | 8.50828 | 31851 ft | 460 kts | 166° |
| 2026-05-05 19:12 | 46.05628 | 8.52442 | 31277 ft | 459 kts | 166° |
| 2026-05-05 19:13 | 46.02647 | 8.54044 | 30689 ft | 456 kts | 166° |
| 2026-05-05 19:13 | 45.99684 | 8.55638 | 30057 ft | 453 kts | 166° |
| 2026-05-05 19:13 | 45.96725 | 8.57229 | 28919 ft | 453 kts | 165° |
| 2026-05-05 19:13 | 45.93769 | 8.58818 | 27848 ft | 452 kts | 165° |
| 2026-05-05 19:14 | 45.90832 | 8.60392 | 26814 ft | 450 kts | 165° |
| 2026-05-05 19:14 | 45.87949 | 8.62019 | 25800 ft | 433 kts | 159° |
| 2026-05-05 19:14 | 45.85408 | 8.64274 | 24850 ft | 436 kts | 149° |
| 2026-05-05 19:14 | 45.83023 | 8.66940 | 23915 ft | 438 kts | 146° |
| 2026-05-05 19:15 | 45.80658 | 8.69696 | 22869 ft | 437 kts | 146° |
| 2026-05-05 19:15 | 45.78216 | 8.72241 | 21840 ft | 432 kts | 151° |
| 2026-05-05 19:15 | 45.75676 | 8.74488 | 21073 ft | 425 kts | 153° |
| 2026-05-05 19:15 | 45.73246 | 8.76734 | 20973 ft | 407 kts | 146° |
| 2026-05-05 19:16 | 45.71243 | 8.79626 | 20520 ft | 419 kts | 131° |
| 2026-05-05 19:16 | 45.69812 | 8.83298 | 19903 ft | 426 kts | 115° |
| 2026-05-05 19:16 | 45.69088 | 8.87401 | 19294 ft | 427 kts | 102° |
| 2026-05-05 19:16 | 45.68794 | 8.91649 | 18339 ft | 426 kts | 96° |
| 2026-05-05 19:17 | 45.68676 | 8.95856 | 17282 ft | 420 kts | 94° |
| 2026-05-05 19:17 | 45.68617 | 9.00007 | 16255 ft | 414 kts | 94° |
| 2026-05-05 19:17 | 45.68572 | 9.04082 | 15238 ft | 407 kts | 93° |
| 2026-05-05 19:17 | 45.68500 | 9.08097 | 14276 ft | 399 kts | 94° |
| 2026-05-05 19:18 | 45.68751 | 9.11996 | 13333 ft | 394 kts | 75° |
| 2026-05-05 19:18 | 45.69926 | 9.15441 | 12975 ft | 376 kts | 52° |
| 2026-05-05 19:18 | 45.71797 | 9.17820 | 12986 ft | 348 kts | 27° |
| 2026-05-05 19:18 | 45.74001 | 9.18764 | 12992 ft | 322 kts | 358° |
| 2026-05-05 19:19 | 45.76110 | 9.18127 | 12995 ft | 305 kts | 329° |
| 2026-05-05 19:19 | 45.77707 | 9.16239 | 13003 ft | 294 kts | 300° |
| 2026-05-05 19:19 | 45.78603 | 9.13672 | 12990 ft | 292 kts | 288° |
| 2026-05-05 19:19 | 45.79269 | 9.10934 | 12949 ft | 292 kts | 284° |
| 2026-05-05 19:20 | 45.79879 | 9.08123 | 12549 ft | 294 kts | 284° |
| 2026-05-05 19:20 | 45.80465 | 9.05335 | 12174 ft | 291 kts | 283° |
| 2026-05-05 19:20 | 45.81039 | 9.02561 | 11788 ft | 289 kts | 283° |
| 2026-05-05 19:20 | 45.81606 | 8.99802 | 11419 ft | 288 kts | 283° |
| 2026-05-05 19:21 | 45.82170 | 8.97039 | 11038 ft | 288 kts | 283° |
| 2026-05-05 19:21 | 45.82700 | 8.94307 | 10996 ft | 281 kts | 278° |
| 2026-05-05 19:21 | 45.82479 | 8.91578 | 11009 ft | 280 kts | 243° |
| 2026-05-05 19:21 | 45.81213 | 8.89514 | 11012 ft | 279 kts | 211° |
| 2026-05-05 19:22 | 45.79420 | 8.88466 | 10994 ft | 279 kts | 198° |
| 2026-05-05 19:22 | 45.77530 | 8.87769 | 10998 ft | 281 kts | 194° |
| 2026-05-05 19:22 | 45.75622 | 8.87160 | 10990 ft | 280 kts | 194° |
| 2026-05-05 19:22 | 45.73694 | 8.86572 | 10650 ft | 284 kts | 192° |
| 2026-05-05 19:23 | 45.71747 | 8.86232 | 10280 ft | 280 kts | 185° |
| 2026-05-05 19:23 | 45.69838 | 8.86089 | 9914 ft | 275 kts | 184° |
| 2026-05-05 19:23 | 45.67957 | 8.85990 | 9504 ft | 260 kts | 183° |
| 2026-05-05 19:23 | 45.66200 | 8.86109 | 9071 ft | 253 kts | 173° |
| 2026-05-05 19:24 | 45.64433 | 8.86541 | 8681 ft | 260 kts | 171° |
| 2026-05-05 19:24 | 45.62674 | 8.87038 | 8276 ft | 254 kts | 170° |
| 2026-05-05 19:24 | 45.60953 | 8.87538 | 7897 ft | 250 kts | 170° |
| 2026-05-05 19:24 | 45.59254 | 8.88034 | 7520 ft | 248 kts | 170° |
| 2026-05-05 19:25 | 45.57565 | 8.88527 | 7143 ft | 247 kts | 170° |
| 2026-05-05 19:25 | 45.55884 | 8.89017 | 6772 ft | 246 kts | 169° |
| 2026-05-05 19:25 | 45.54211 | 8.89505 | 6407 ft | 244 kts | 169° |
| 2026-05-05 19:25 | 45.52548 | 8.89989 | 6031 ft | 243 kts | 169° |
| 2026-05-05 19:26 | 45.50912 | 8.90466 | 6024 ft | 241 kts | 169° |
| 2026-05-05 19:26 | 45.49256 | 8.90948 | 6028 ft | 243 kts | 169° |
| 2026-05-05 19:26 | 45.47599 | 8.91430 | 6028 ft | 244 kts | 169° |
| 2026-05-05 19:26 | 45.45937 | 8.91913 | 6024 ft | 241 kts | 169° |
| 2026-05-05 19:27 | 45.44320 | 8.92383 | 6021 ft | 236 kts | 169° |
| 2026-05-05 19:27 | 45.42732 | 8.92846 | 6011 ft | 236 kts | 169° |
| 2026-05-05 19:27 | 45.41108 | 8.93318 | 6001 ft | 234 kts | 169° |
| 2026-05-05 19:27 | 45.39517 | 8.93761 | 6004 ft | 230 kts | 171° |
| 2026-05-05 19:28 | 45.37951 | 8.94179 | 6006 ft | 229 kts | 171° |
| 2026-05-05 19:28 | 45.36409 | 8.94589 | 6013 ft | 227 kts | 171° |
| 2026-05-05 19:28 | 45.34907 | 8.94988 | 6027 ft | 213 kts | 171° |
| 2026-05-05 19:28 | 45.33462 | 8.95372 | 6025 ft | 210 kts | 171° |
| 2026-05-05 19:29 | 45.32035 | 8.95750 | 6019 ft | 208 kts | 171° |
| 2026-05-05 19:29 | 45.30609 | 8.96127 | 6021 ft | 208 kts | 171° |
| 2026-05-05 19:29 | 45.29186 | 8.96504 | 6018 ft | 209 kts | 171° |
| 2026-05-05 19:29 | 45.27756 | 8.96881 | 5961 ft | 210 kts | 171° |
| 2026-05-05 19:30 | 45.26318 | 8.97261 | 5694 ft | 209 kts | 171° |
| 2026-05-05 19:30 | 45.24902 | 8.97636 | 5427 ft | 205 kts | 171° |
| 2026-05-05 19:30 | 45.23496 | 8.98008 | 5187 ft | 206 kts | 171° |
| 2026-05-05 19:30 | 45.22088 | 8.98381 | 5000 ft | 204 kts | 172° |
| 2026-05-05 19:31 | 45.20703 | 8.98749 | 5007 ft | 203 kts | 172° |
| 2026-05-05 19:31 | 45.19312 | 8.99115 | 5007 ft | 203 kts | 171° |
| 2026-05-05 19:31 | 45.17919 | 8.99484 | 5002 ft | 204 kts | 172° |
| 2026-05-05 19:31 | 45.16529 | 8.99849 | 5003 ft | 203 kts | 171° |
| 2026-05-05 19:32 | 45.15143 | 9.00214 | 5004 ft | 204 kts | 171° |
| 2026-05-05 19:32 | 45.13748 | 9.00582 | 4999 ft | 203 kts | 171° |
| 2026-05-05 19:32 | 45.12361 | 9.00947 | 4988 ft | 203 kts | 171° |
| 2026-05-05 19:32 | 45.10965 | 9.01315 | 4992 ft | 204 kts | 171° |
| 2026-05-05 19:33 | 45.09564 | 9.01684 | 4993 ft | 204 kts | 171° |
| 2026-05-05 19:33 | 45.08166 | 9.02053 | 4993 ft | 204 kts | 171° |
| 2026-05-05 19:33 | 45.06774 | 9.02417 | 4991 ft | 203 kts | 172° |
| 2026-05-05 19:33 | 45.05412 | 9.02176 | 4972 ft | 201 kts | 210° |
| 2026-05-05 19:34 | 45.04575 | 9.00610 | 4973 ft | 209 kts | 252° |
| 2026-05-05 19:34 | 45.04741 | 8.98609 | 4984 ft | 217 kts | 294° |
| 2026-05-05 19:34 | 45.05817 | 8.97092 | 4986 ft | 224 kts | 326° |
| 2026-05-05 19:35 | 45.08710 | 8.95400 | 5007 ft | 226 kts | 338° |
| 2026-05-05 19:35 | 45.10187 | 8.94652 | 5009 ft | 225 kts | 338° |
| 2026-05-05 19:35 | 45.11688 | 8.93896 | 4772 ft | 227 kts | 338° |
| 2026-05-05 19:35 | 45.13168 | 8.93151 | 4520 ft | 225 kts | 338° |
| 2026-05-05 19:36 | 45.14635 | 8.92413 | 4267 ft | 223 kts | 339° |
| 2026-05-05 19:36 | 45.16092 | 8.91678 | 4018 ft | 224 kts | 339° |
| 2026-05-05 19:36 | 45.17595 | 8.90919 | 4011 ft | 235 kts | 339° |
| 2026-05-05 19:36 | 45.19155 | 8.90131 | 4008 ft | 239 kts | 339° |
| 2026-05-05 19:37 | 45.20729 | 8.89336 | 4010 ft | 241 kts | 339° |
| 2026-05-05 19:37 | 45.22311 | 8.88538 | 4005 ft | 241 kts | 339° |
| 2026-05-05 19:37 | 45.23882 | 8.87744 | 4006 ft | 239 kts | 340° |
| 2026-05-05 19:37 | 45.25441 | 8.86957 | 4024 ft | 237 kts | 340° |
| 2026-05-05 19:38 | 45.27003 | 8.86168 | 4029 ft | 239 kts | 340° |
| 2026-05-05 19:38 | 45.28554 | 8.85384 | 4029 ft | 238 kts | 340° |
| 2026-05-05 19:38 | 45.30129 | 8.84571 | 4026 ft | 238 kts | 336° |
| 2026-05-05 19:38 | 45.31566 | 8.83395 | 4016 ft | 238 kts | 328° |
| 2026-05-05 19:39 | 45.33075 | 8.82414 | 4019 ft | 239 kts | 339° |
| 2026-05-05 19:39 | 45.34623 | 8.81635 | 4014 ft | 229 kts | 341° |
| 2026-05-05 19:39 | 45.36108 | 8.80948 | 4017 ft | 222 kts | 343° |
| 2026-05-05 19:39 | 45.37589 | 8.80393 | 4012 ft | 219 kts | 347° |
| 2026-05-05 19:40 | 45.39081 | 8.79977 | 4017 ft | 218 kts | 349° |
| 2026-05-05 19:40 | 45.40555 | 8.79569 | 4016 ft | 207 kts | 349° |
| 2026-05-05 19:40 | 45.41911 | 8.79194 | 4011 ft | 192 kts | 349° |
| 2026-05-05 19:40 | 45.43206 | 8.78835 | 4013 ft | 188 kts | 349° |
| 2026-05-05 19:41 | 45.44466 | 8.78487 | 4015 ft | 187 kts | 349° |
| 2026-05-05 19:41 | 45.45747 | 8.78131 | 3942 ft | 190 kts | 349° |
| 2026-05-05 19:41 | 45.47049 | 8.77770 | 3697 ft | 190 kts | 349° |
| 2026-05-05 19:41 | 45.48353 | 8.77408 | 3456 ft | 192 kts | 349° |
| 2026-05-05 19:42 | 45.49670 | 8.77044 | 3199 ft | 195 kts | 349° |
| 2026-05-05 19:42 | 45.50998 | 8.76676 | 2949 ft | 193 kts | 349° |
| 2026-05-05 19:42 | 45.52293 | 8.76316 | 2678 ft | 185 kts | 350° |
| 2026-05-05 19:42 | 45.53530 | 8.75970 | 2540 ft | 171 kts | 350° |
| 2026-05-05 19:43 | 45.54745 | 8.75641 | 2404 ft | 186 kts | 351° |
| 2026-05-05 19:43 | 45.56066 | 8.75279 | 2113 ft | 199 kts | 348° |
| 2026-05-05 19:43 | 45.57416 | 8.74886 | 1826 ft | 192 kts | 351° |
| 2026-05-05 19:43 | 45.58673 | 8.74560 | 1491 ft | 175 kts | 351° |
| 2026-05-05 19:44 | 45.59822 | 8.74242 | 1161 ft | 161 kts | 349° |
| 2026-05-05 19:44 | 45.60862 | 8.73954 | 925 ft | 148 kts | 348° |
| 2026-05-05 19:44 | 45.61846 | 8.73679 | 751 ft | 136 kts | 349° |
| 2026-05-05 19:44 | 45.62659 | 8.73450 | 743 ft | 99 kts | 349° |
| 2026-05-05 19:45 | 45.63181 | 8.73217 | 743 ft | 54 kts | 319° |
| 2026-05-05 19:45 | 45.63366 | 8.72850 | 744 ft | 30 kts | 303° |
| 2026-05-05 19:45 | 45.63397 | 8.72769 | 744 ft | 2 kts | 292° |
| 2026-05-05 19:45 | 45.63411 | 8.72671 | 747 ft | 17 kts | 270° |
| 2026-05-05 19:46 | 45.63387 | 8.72457 | 743 ft | 18 kts | 259° |
| 2026-05-05 19:46 | 45.63366 | 8.72306 | 744 ft | 16 kts | 259° |
| 2026-05-05 19:46 | 45.63343 | 8.72137 | 744 ft | 18 kts | 258° |
| 2026-05-05 19:46 | 45.63330 | 8.72049 | 743 ft | 0 kts | 258° |
| 2026-05-05 19:47 | 45.63330 | 8.72044 | 743 ft | 3 kts | 258° |
| 2026-05-05 19:47 | 45.63313 | 8.71994 | 742 ft | 7 kts | 223° |
| 2026-05-05 19:48 | 45.63248 | 8.71980 | 746 ft | 0 kts | 170° |
| 2026-05-05 19:48 | 45.63226 | 8.71985 | 743 ft | 9 kts | 171° |
| 2026-05-05 19:48 | 45.63153 | 8.72003 | 744 ft | 12 kts | 170° |
| 2026-05-05 19:49 | 45.63132 | 8.72009 | 745 ft | 0 kts | 169° |
| 2026-05-05 19:49 | 45.63131 | 8.72009 | 745 ft | 1 kts | 169° |
| 2026-05-05 19:49 | 45.63085 | 8.72022 | 743 ft | 13 kts | 168° |
| 2026-05-05 19:50 | 45.63007 | 8.72004 | 743 ft | 9 kts | 234° |
| 2026-05-05 19:50 | 45.62988 | 8.71907 | 747 ft | 13 kts | 258° |
| 2026-05-05 19:50 | 45.62953 | 8.71787 | 743 ft | 13 kts | 224° |
| 2026-05-05 19:50 | 45.62893 | 8.71689 | 743 ft | 13 kts | 233° |
| 2026-05-05 19:51 | 45.62876 | 8.71657 | 742 ft | 2 kts | 232° |
| 2026-05-05 19:51 | 45.62872 | 8.71649 | 742 ft | 0 kts | 232° |